createdAt,value
2022-10-18T00:01:41.301Z,101756.52
2022-10-18T00:04:09.156Z,101754.56
2022-10-18T00:06:39.822Z,101748.39
2022-10-18T00:09:11.352Z,101750.17
2022-10-18T00:11:39.215Z,101745.77
2022-10-18T00:14:41.449Z,101746.47
2022-10-18T00:17:09.242Z,101752.79
2022-10-18T00:19:36.923Z,101759.48
2022-10-18T00:22:04.657Z,101762.10
2022-10-18T00:24:32.404Z,101763.16
2022-10-18T00:27:00.109Z,101764.39
2022-10-18T00:29:27.898Z,101759.23
2022-10-18T00:31:55.797Z,101765.02
2022-10-18T00:34:23.568Z,101765.64
2022-10-18T00:36:51.459Z,101765.52
2022-10-18T00:39:20.912Z,101768.45
2022-10-18T00:41:49.701Z,101765.70
2022-10-18T00:44:17.479Z,101769.41
2022-10-18T00:46:48.957Z,101767.13
2022-10-18T00:49:21.685Z,101764.06
2022-10-18T00:51:56.258Z,101761.57
2022-10-18T00:54:25.121Z,101763.83
2022-10-18T00:56:53.044Z,101767.73
2022-10-18T00:59:21.787Z,101768.21
2022-10-18T01:01:49.653Z,101765.52
2022-10-18T01:04:19.118Z,101764.83
2022-10-18T01:09:56.101Z,101760.20
2022-10-18T01:12:35.564Z,101762.80
2022-10-18T01:15:12.470Z,101762.45
2022-10-18T01:18:08.953Z,101764.59
2022-10-18T01:20:43.043Z,101763.04
2022-10-18T01:23:23.660Z,101763.77
2022-10-18T01:26:08.218Z,101768.16
2022-10-18T01:29:09.324Z,101768.83
2022-10-18T01:31:45.377Z,101765.98
2022-10-18T01:34:15.703Z,101762.43
2022-10-18T01:36:56.561Z,101759.25
2022-10-18T01:39:31.301Z,101760.42
2022-10-18T01:42:02.732Z,101757.77
2022-10-18T01:44:32.930Z,101756.78
2022-10-18T01:47:01.356Z,101752.59
2022-10-18T01:49:29.435Z,101751.56
2022-10-18T01:51:57.205Z,101748.77
2022-10-18T01:54:33.105Z,101757.18
2022-10-18T01:57:15.564Z,101753.38
2022-10-18T02:00:02.178Z,101755.40
2022-10-18T02:02:51.087Z,101751.55
2022-10-18T02:05:36.831Z,101750.42
2022-10-18T02:08:22.382Z,101756.10
2022-10-18T02:11:04.509Z,101747.10
2022-10-18T02:13:47.499Z,101748.27
2022-10-18T02:16:34.719Z,101749.77
2022-10-18T02:19:10.626Z,101747.27
2022-10-18T02:21:42.563Z,101749.14
2022-10-18T02:24:13.908Z,101747.77
2022-10-18T02:26:42.176Z,101748.71
2022-10-18T02:29:10.950Z,101746.14
2022-10-18T02:31:48.689Z,101740.77
2022-10-18T02:34:26.825Z,101741.76
2022-10-18T02:36:59.272Z,101747.08
2022-10-18T02:39:30.578Z,101748.22
2022-10-18T02:41:59.528Z,101750.30
2022-10-18T02:44:27.637Z,101751.35
2022-10-18T02:46:55.581Z,101750.75
2022-10-18T02:49:23.340Z,101756.14
2022-10-18T02:51:51.104Z,101754.44
2022-10-18T02:54:18.865Z,101756.21
2022-10-18T02:56:46.650Z,101763.09
2022-10-18T02:59:14.499Z,101762.34
2022-10-18T03:01:42.263Z,101766.58
2022-10-18T03:04:10.370Z,101768.60
2022-10-18T03:06:38.351Z,101774.33
2022-10-18T03:09:07.048Z,101778.04
2022-10-18T03:11:34.824Z,101776.35
2022-10-18T03:14:02.970Z,101775.25
2022-10-18T03:16:31.619Z,101768.63
2022-10-18T03:18:59.615Z,101769.53
2022-10-18T03:21:27.614Z,101771.00
2022-10-18T03:23:56.122Z,101773.27
2022-10-18T03:26:23.891Z,101774.01
2022-10-18T03:28:51.744Z,101776.46
2022-10-18T03:31:19.749Z,101777.54
2022-10-18T03:33:48.412Z,101778.77
2022-10-18T03:36:16.539Z,101774.92
2022-10-18T03:38:44.529Z,101779.70
2022-10-18T03:41:12.874Z,101779.52
2022-10-18T03:43:40.769Z,101779.14
2022-10-18T03:46:08.759Z,101777.68
2022-10-18T03:48:36.665Z,101781.98
2022-10-18T03:51:04.585Z,101781.55
2022-10-18T03:53:32.330Z,101788.02
2022-10-18T03:56:00.202Z,101785.24
2022-10-18T03:58:28.282Z,101789.02
2022-10-18T04:00:57.103Z,101789.33
2022-10-18T04:03:24.982Z,101790.95
2022-10-18T04:05:52.904Z,101789.53
2022-10-18T04:08:20.809Z,101792.38
2022-10-18T04:10:48.629Z,101797.27
2022-10-18T04:13:16.419Z,101794.27
2022-10-18T04:15:44.853Z,101796.84
2022-10-18T04:18:13.082Z,101791.55
2022-10-18T04:20:41.071Z,101789.40
2022-10-18T04:23:08.987Z,101790.38
2022-10-18T04:25:37.255Z,101789.29
2022-10-18T04:28:05.871Z,101788.61
2022-10-18T04:30:34.473Z,101784.10
2022-10-18T04:33:03.786Z,101776.16
2022-10-18T04:35:32.068Z,101779.16
2022-10-18T04:38:00.760Z,101771.90
2022-10-18T04:40:28.733Z,101775.88
2022-10-18T04:42:56.558Z,101777.70
2022-10-18T04:45:24.591Z,101776.75
2022-10-18T04:47:52.287Z,101773.21
2022-10-18T04:50:20.069Z,101773.73
2022-10-18T04:55:21.586Z,101768.98
2022-10-18T04:57:49.597Z,101769.75
2022-10-18T05:00:17.619Z,101765.51
2022-10-18T05:02:45.459Z,101761.23
2022-10-18T05:05:14.299Z,101759.23
2022-10-18T05:07:42.458Z,101759.98
2022-10-18T05:10:11.001Z,101765.28
2022-10-18T05:12:39.059Z,101764.38
2022-10-18T05:15:07.422Z,101759.23
2022-10-18T05:17:35.748Z,101762.71
2022-10-18T05:20:04.938Z,101761.27
2022-10-18T05:22:33.866Z,101761.86
2022-10-18T05:25:01.847Z,101760.86
2022-10-18T05:27:29.991Z,101761.77
2022-10-18T05:30:01.254Z,101761.16
2022-10-18T05:32:33.446Z,101757.79
2022-10-18T05:35:02.215Z,101753.30
2022-10-18T05:37:30.332Z,101751.96
2022-10-18T05:39:58.203Z,101751.55
2022-10-18T05:42:26.027Z,101749.67
2022-10-18T05:44:53.717Z,101748.41
2022-10-18T05:47:21.647Z,101755.21
2022-10-18T05:49:49.396Z,101755.36
2022-10-18T05:52:17.647Z,101750.38
2022-10-18T05:54:45.325Z,101751.09
2022-10-18T05:57:13.901Z,101751.96
2022-10-18T05:59:42.409Z,101750.40
2022-10-18T06:02:12.766Z,101749.85
2022-10-18T06:04:40.678Z,101752.27
2022-10-18T06:07:11.635Z,101759.55
2022-10-18T06:09:39.969Z,101759.11
2022-10-18T06:12:09.172Z,101760.66
2022-10-18T06:14:37.751Z,101768.61
2022-10-18T06:17:06.492Z,101773.11
2022-10-18T06:19:34.654Z,101778.58
2022-10-18T06:22:02.456Z,101781.75
2022-10-18T06:24:30.949Z,101789.05
2022-10-18T06:26:58.939Z,101794.13
2022-10-18T06:29:26.944Z,101799.98
2022-10-18T06:31:54.825Z,101799.39
2022-10-18T06:34:22.673Z,101803.00
2022-10-18T06:36:55.011Z,101805.20
2022-10-18T06:39:26.345Z,101809.84
2022-10-18T06:41:54.486Z,101811.73
2022-10-18T06:44:22.545Z,101816.43
2022-10-18T06:46:50.562Z,101817.66
2022-10-18T06:49:19.306Z,101819.52
2022-10-18T06:51:47.316Z,101818.84
2022-10-18T06:54:19.122Z,101821.14
2022-10-18T06:56:47.003Z,101817.48
2022-10-18T06:59:15.210Z,101816.31
2022-10-18T07:01:43.981Z,101819.19
2022-10-18T07:04:12.793Z,101823.08
2022-10-18T07:06:40.977Z,101832.23
2022-10-18T07:09:09.587Z,101836.33
2022-10-18T07:11:37.941Z,101830.88
2022-10-18T07:14:06.286Z,101830.91
2022-10-18T07:16:34.912Z,101828.05
2022-10-18T07:19:03.362Z,101824.56
2022-10-18T07:21:31.838Z,101823.75
2022-10-18T07:24:00.458Z,101822.07
2022-10-18T07:26:31.671Z,101822.07
2022-10-18T07:29:11.387Z,101819.63
2022-10-18T07:31:39.383Z,101817.52
2022-10-18T07:34:09.181Z,101812.83
2022-10-18T07:36:37.201Z,101816.02
2022-10-18T07:39:05.325Z,101818.79
2022-10-18T07:41:34.213Z,101818.34
2022-10-18T07:44:03.041Z,101816.19
2022-10-18T07:46:31.136Z,101815.58
2022-10-18T07:48:59.660Z,101820.06
2022-10-18T07:51:28.077Z,101815.22
2022-10-18T07:53:55.979Z,101815.27
2022-10-18T07:56:25.332Z,101813.94
2022-10-18T07:58:56.175Z,101813.36
2022-10-18T08:01:25.652Z,101816.90
2022-10-18T08:03:53.941Z,101813.48
2022-10-18T08:06:23.702Z,101810.48
2022-10-18T08:08:52.268Z,101813.08
2022-10-18T08:11:23.263Z,101809.83
2022-10-18T08:13:52.267Z,101814.27
2022-10-18T08:16:23.662Z,101813.38
2022-10-18T08:18:52.077Z,101809.80
2022-10-18T08:21:21.570Z,101803.73
2022-10-18T08:23:50.296Z,101795.91
2022-10-18T08:26:20.763Z,101785.69
2022-10-18T08:28:54.358Z,101787.66
2022-10-18T08:31:31.962Z,101784.54
2022-10-18T08:34:00.761Z,101780.95
2022-10-18T08:36:28.570Z,101783.43
2022-10-18T08:38:56.367Z,101776.79
2022-10-18T08:41:46.409Z,101779.06
2022-10-18T08:44:20.952Z,101777.68
2022-10-18T08:46:52.167Z,101776.55
2022-10-18T08:49:31.523Z,101776.64
2022-10-18T08:51:59.541Z,101781.23
2022-10-18T08:54:43.613Z,101781.68
2022-10-18T08:57:16.208Z,101781.16
2022-10-18T08:59:44.278Z,101782.11
2022-10-18T09:02:39.269Z,101782.30
2022-10-18T09:05:12.999Z,101778.66
2022-10-18T09:07:51.739Z,101776.48
2022-10-18T09:10:26.656Z,101772.89
2022-10-18T09:13:25.059Z,101772.79
2022-10-18T09:16:00.193Z,101772.66
2022-10-18T09:18:51.594Z,101767.49
2022-10-18T09:21:23.695Z,101769.95
2022-10-18T09:24:14.511Z,101765.15
2022-10-18T09:26:46.022Z,101772.16
2022-10-18T09:29:39.031Z,101773.50
2022-10-18T09:32:44.720Z,101767.38
2022-10-18T09:35:24.171Z,101768.27
2022-10-18T09:37:59.429Z,101766.13
2022-10-18T09:40:31.116Z,101764.70
2022-10-18T09:43:06.540Z,101764.16
2022-10-18T09:45:40.426Z,101763.95
2022-10-18T09:48:22.693Z,101757.98
2022-10-18T09:51:15.245Z,101757.34
2022-10-18T09:54:06.513Z,101754.30
2022-10-18T09:56:46.664Z,101756.65
2022-10-18T09:59:32.682Z,101761.84
2022-10-18T10:02:00.603Z,101765.54
2022-10-18T10:04:29.212Z,101767.95
2022-10-18T10:07:00.695Z,101760.09
2022-10-18T10:09:31.874Z,101756.36
2022-10-18T10:12:02.819Z,101755.80
2022-10-18T10:14:31.045Z,101754.27
2022-10-18T10:17:04.609Z,101751.23
2022-10-18T10:19:34.081Z,101750.21
2022-10-18T10:22:06.061Z,101741.65
2022-10-18T10:24:46.613Z,101743.01
2022-10-18T10:27:43.895Z,101736.46
2022-10-18T10:30:30.400Z,101727.11
2022-10-18T10:32:58.895Z,101724.20
2022-10-18T10:38:27.644Z,101737.91
2022-10-18T10:40:56.646Z,101745.67
2022-10-18T10:43:39.979Z,101742.44
2022-10-18T10:46:18.945Z,101729.90
2022-10-18T10:49:35.041Z,101712.84
2022-10-18T10:52:08.566Z,101703.00
2022-10-18T10:54:50.410Z,101697.78
2022-10-18T10:57:29.256Z,101690.98
2022-10-18T11:00:02.108Z,101697.48
2022-10-18T11:02:32.327Z,101694.70
2022-10-18T11:05:27.172Z,101690.17
2022-10-18T11:07:58.526Z,101686.13
2022-10-18T11:10:32.484Z,101681.11
2022-10-18T11:13:18.484Z,101681.15
2022-10-18T11:15:50.495Z,101682.33
2022-10-18T11:18:33.048Z,101678.59
2022-10-18T11:21:12.218Z,101670.73
2022-10-18T11:23:44.796Z,101658.63
2022-10-18T11:26:13.349Z,101653.73
2022-10-18T11:29:05.297Z,101656.26
2022-10-18T11:31:43.596Z,101653.09
2022-10-18T11:34:25.700Z,101651.66
2022-10-18T11:37:26.382Z,101653.40
2022-10-18T11:40:08.546Z,101653.98
2022-10-18T11:42:56.723Z,101645.06
2022-10-18T11:45:40.981Z,101634.92
2022-10-18T11:48:38.029Z,101636.79
2022-10-18T11:52:07.399Z,101654.71
2022-10-18T11:54:42.829Z,101659.97
2022-10-18T11:57:27.351Z,101666.23
2022-10-18T12:00:15.172Z,101682.40
2022-10-18T12:03:27.301Z,101687.06
2022-10-18T12:05:59.584Z,101670.23
2022-10-18T12:08:39.962Z,101659.79
2022-10-18T12:11:22.821Z,101653.48
2022-10-18T12:14:13.849Z,101653.51
2022-10-18T12:16:50.860Z,101649.17
2022-10-18T12:19:33.440Z,101649.39
2022-10-18T12:22:19.058Z,101648.88
2022-10-18T12:24:47.504Z,101648.74
2022-10-18T12:27:17.506Z,101650.98
2022-10-18T12:30:02.746Z,101655.73
2022-10-18T12:32:37.153Z,101659.31
2022-10-18T12:35:15.299Z,101660.36
2022-10-18T12:38:08.198Z,101670.48
2022-10-18T12:40:38.529Z,101691.42
2022-10-18T12:43:17.588Z,101694.41
2022-10-18T12:46:00.305Z,101678.02
2022-10-18T12:48:30.559Z,101656.45
2022-10-18T12:51:14.393Z,101651.33
2022-10-18T12:53:53.239Z,101663.59
2022-10-18T12:56:41.974Z,101679.70
2022-10-18T12:59:17.304Z,101677.48
2022-10-18T13:02:10.042Z,101669.93
2022-10-18T13:04:38.777Z,101658.80
2022-10-18T13:07:10.404Z,101647.86
2022-10-18T13:09:41.439Z,101644.91
2022-10-18T13:12:09.719Z,101649.99
2022-10-18T13:14:53.617Z,101643.08
2022-10-18T13:17:38.099Z,101636.71
2022-10-18T13:20:27.566Z,101644.34
2022-10-18T13:23:13.022Z,101651.21
2022-10-18T13:25:54.097Z,101654.77
2022-10-18T13:28:27.849Z,101660.65
2022-10-18T13:31:01.172Z,101657.41
2022-10-18T13:33:32.365Z,101649.48
2022-10-18T13:36:22.900Z,101644.90
2022-10-18T13:39:04.083Z,101649.81
2022-10-18T13:41:49.324Z,101655.67
2022-10-18T13:44:28.888Z,101658.95
2022-10-18T13:46:58.089Z,101664.98
2022-10-18T13:49:30.287Z,101671.83
2022-10-18T13:52:25.712Z,101671.69
2022-10-18T13:55:25.070Z,101669.86
2022-10-18T13:58:15.411Z,101667.11
2022-10-18T14:00:53.187Z,101666.71
2022-10-18T14:06:35.563Z,101660.98
2022-10-18T14:09:26.481Z,101664.08
2022-10-18T14:12:26.774Z,101670.49
2022-10-18T14:15:14.002Z,101670.73
2022-10-18T14:17:50.653Z,101661.07
2022-10-18T14:20:29.853Z,101654.05
2022-10-18T14:23:07.974Z,101659.35
2022-10-18T14:25:38.217Z,101658.60
2022-10-18T14:28:21.730Z,101657.81
2022-10-18T14:30:59.184Z,101650.31
2022-10-18T14:33:28.429Z,101652.77
2022-10-18T14:36:07.348Z,101655.81
2022-10-18T14:38:45.853Z,101650.20
2022-10-18T14:41:17.639Z,101653.06
2022-10-18T14:43:48.267Z,101646.33
2022-10-18T14:46:19.861Z,101646.49
2022-10-18T14:49:04.978Z,101643.45
2022-10-18T14:51:40.120Z,101634.11
2022-10-18T14:56:49.082Z,101614.42
2022-10-18T14:59:22.423Z,101608.98
2022-10-18T15:02:00.420Z,101606.02
2022-10-18T15:04:33.610Z,101608.96
2022-10-18T15:07:05.504Z,101619.96
2022-10-18T15:09:36.377Z,101642.73
2022-10-18T15:12:07.628Z,101660.56
2022-10-18T15:14:38.352Z,101665.98
2022-10-18T15:17:19.335Z,101672.17
2022-10-18T15:20:04.979Z,101675.52
2022-10-18T15:22:35.080Z,101674.61
2022-10-18T15:25:09.540Z,101677.89
2022-10-18T15:27:39.809Z,101672.02
2022-10-18T15:30:28.359Z,101674.23
2022-10-18T15:33:02.086Z,101674.40
2022-10-18T15:35:36.806Z,101678.16
2022-10-18T15:38:37.394Z,101682.31
2022-10-18T15:41:45.633Z,101682.42
2022-10-18T15:44:28.384Z,101681.77
2022-10-18T15:47:10.517Z,101686.23
2022-10-18T15:49:44.756Z,101684.25
2022-10-18T15:52:22.201Z,101682.19
2022-10-18T15:54:50.370Z,101684.77
2022-10-18T15:57:19.042Z,101681.35
2022-10-18T15:59:58.950Z,101678.17
2022-10-18T16:02:27.552Z,101677.97
2022-10-18T16:04:55.703Z,101679.33
2022-10-18T16:07:26.243Z,101678.67
2022-10-18T16:09:54.667Z,101683.92
2022-10-18T16:12:23.252Z,101689.44
2022-10-18T16:14:51.762Z,101693.83
2022-10-18T16:17:22.477Z,101691.25
2022-10-18T16:19:50.697Z,101693.56
2022-10-18T16:22:21.887Z,101693.34
2022-10-18T16:24:50.068Z,101699.98
2022-10-18T16:27:18.737Z,101701.66
2022-10-18T16:29:47.276Z,101693.00
2022-10-18T16:32:21.682Z,101692.20
2022-10-18T16:34:54.055Z,101699.02
2022-10-18T16:37:22.173Z,101697.63
2022-10-18T16:39:50.906Z,101704.05
2022-10-18T16:42:19.660Z,101698.52
2022-10-18T16:44:49.949Z,101705.58
2022-10-18T16:47:18.503Z,101704.07
2022-10-18T16:49:56.058Z,101696.70
2022-10-18T16:52:27.598Z,101695.70
2022-10-18T16:54:56.574Z,101701.23
2022-10-18T16:57:25.191Z,101707.45
2022-10-18T16:59:53.610Z,101709.56
2022-10-18T17:02:21.750Z,101714.23
2022-10-18T17:04:49.805Z,101717.70
2022-10-18T17:07:24.625Z,101719.55
2022-10-18T17:09:53.453Z,101721.71
2022-10-18T17:12:22.239Z,101724.90
2022-10-18T17:14:51.228Z,101727.95
2022-10-18T17:17:20.564Z,101724.34
2022-10-18T17:19:48.781Z,101725.92
2022-10-18T17:22:18.017Z,101728.16
2022-10-18T17:24:47.388Z,101733.54
2022-10-18T17:27:16.168Z,101734.66
2022-10-18T17:29:45.192Z,101736.95
2022-10-18T17:32:13.687Z,101736.45
2022-10-18T17:34:42.388Z,101740.20
2022-10-18T17:37:11.842Z,101745.30
2022-10-18T17:39:41.876Z,101747.20
2022-10-18T17:42:12.384Z,101747.57
2022-10-18T17:44:46.690Z,101749.11
2022-10-18T17:47:18.148Z,101746.17
2022-10-18T17:49:48.145Z,101750.18
2022-10-18T17:52:16.867Z,101740.93
2022-10-18T17:54:58.921Z,101735.24
2022-10-18T17:57:36.908Z,101740.45
2022-10-18T18:00:13.892Z,101740.56
2022-10-18T18:02:56.600Z,101743.29
2022-10-18T18:05:32.648Z,101743.70
2022-10-18T18:08:04.543Z,101746.03
2022-10-18T18:10:38.930Z,101745.21
2022-10-18T18:13:08.882Z,101747.19
2022-10-18T18:15:40.104Z,101748.35
2022-10-18T18:18:08.420Z,101744.13
2022-10-18T18:20:38.823Z,101743.88
2022-10-18T18:23:08.341Z,101745.03
2022-10-18T18:25:36.674Z,101743.91
2022-10-18T18:28:07.599Z,101741.71
2022-10-18T18:30:40.768Z,101741.39
2022-10-18T18:33:09.130Z,101742.34
2022-10-18T18:35:38.773Z,101746.11
2022-10-18T18:38:10.191Z,101743.35
2022-10-18T18:40:38.744Z,101743.87
2022-10-18T18:43:22.845Z,101745.30
2022-10-18T18:45:52.570Z,101739.52
2022-10-18T18:48:25.769Z,101737.55
2022-10-18T18:50:55.487Z,101736.09
2022-10-18T18:53:28.567Z,101737.67
2022-10-18T18:56:07.076Z,101739.94
2022-10-18T18:58:43.036Z,101742.59
2022-10-18T19:01:19.182Z,101746.54
2022-10-18T19:03:51.346Z,101744.45
2022-10-18T19:06:24.259Z,101741.76
2022-10-18T19:09:03.493Z,101741.17
2022-10-18T19:11:35.191Z,101735.34
2022-10-18T19:14:05.286Z,101741.27
2022-10-18T19:16:59.842Z,101741.58
2022-10-18T19:19:31.246Z,101743.21
2022-10-18T19:22:04.773Z,101751.33
2022-10-18T19:24:33.430Z,101749.52
2022-10-18T19:27:04.137Z,101749.92
2022-10-18T19:29:35.738Z,101750.59
2022-10-18T19:32:07.333Z,101751.11
2022-10-18T19:34:36.024Z,101751.71
2022-10-18T19:37:04.624Z,101753.46
2022-10-18T19:39:36.408Z,101754.02
2022-10-18T19:42:24.251Z,101756.48
2022-10-18T19:44:54.486Z,101759.72
2022-10-18T19:47:45.386Z,101760.70
2022-10-18T19:50:14.096Z,101762.48
2022-10-18T19:52:42.473Z,101760.55
2022-10-18T19:55:11.991Z,101755.27
2022-10-18T19:57:40.189Z,101759.96
2022-10-18T20:00:09.852Z,101763.66
2022-10-18T20:02:39.894Z,101768.80
2022-10-18T20:05:08.002Z,101768.85
2022-10-18T20:07:36.516Z,101768.42
2022-10-18T20:10:04.726Z,101770.24
2022-10-18T20:17:45.870Z,101772.48
2022-10-18T20:20:26.960Z,101774.74
2022-10-18T20:22:55.431Z,101776.71
2022-10-18T20:25:23.617Z,101778.70
2022-10-18T20:27:52.722Z,101780.60
2022-10-18T20:30:21.305Z,101781.66
2022-10-18T20:32:52.902Z,101782.61
2022-10-18T20:35:21.550Z,101785.97
2022-10-18T20:37:50.104Z,101785.73
2022-10-18T20:40:18.707Z,101789.38
2022-10-18T20:42:46.640Z,101790.95
2022-10-18T20:45:16.994Z,101787.07
2022-10-18T20:47:44.985Z,101786.13
2022-10-18T20:50:13.229Z,101789.23
2022-10-18T20:52:42.045Z,101788.52
2022-10-18T20:55:11.272Z,101791.02
2022-10-18T20:57:39.559Z,101793.16
2022-10-18T21:00:12.172Z,101794.74
2022-10-18T21:02:40.220Z,101794.40
2022-10-18T21:05:08.894Z,101799.51
2022-10-18T21:07:37.432Z,101800.90
2022-10-18T21:10:06.064Z,101799.65
2022-10-18T21:12:35.128Z,101801.52
2022-10-18T21:15:03.993Z,101800.77
2022-10-18T21:17:31.881Z,101802.12
2022-10-18T21:20:01.255Z,101804.42
2022-10-18T21:22:29.953Z,101802.98
2022-10-18T21:24:58.219Z,101803.69
2022-10-18T21:27:28.715Z,101801.98
2022-10-18T21:29:57.241Z,101801.85
2022-10-18T21:32:25.319Z,101803.24
2022-10-18T21:34:53.219Z,101798.93
2022-10-18T21:37:21.252Z,101794.70
2022-10-18T21:39:49.143Z,101793.34
2022-10-18T21:42:16.981Z,101793.40
2022-10-18T21:44:44.889Z,101796.08
2022-10-18T21:47:12.754Z,101795.19
2022-10-18T21:49:40.654Z,101789.48
2022-10-18T21:52:08.705Z,101788.80
2022-10-18T21:54:36.549Z,101782.48
2022-10-18T21:57:04.413Z,101779.99
2022-10-18T21:59:32.270Z,101776.15
2022-10-18T22:02:01.515Z,101780.15
2022-10-18T22:04:35.661Z,101778.67
2022-10-18T22:07:04.962Z,101770.20
2022-10-18T22:09:32.939Z,101765.47
2022-10-18T22:12:01.492Z,101764.39
2022-10-18T22:14:29.588Z,101764.40
2022-10-18T22:16:58.097Z,101761.13
2022-10-18T22:19:26.214Z,101761.96
2022-10-18T22:21:54.218Z,101755.94
2022-10-18T22:24:22.225Z,101752.12
2022-10-18T22:26:51.225Z,101747.63
2022-10-18T22:29:21.327Z,101742.20
2022-10-18T22:31:51.928Z,101739.45
2022-10-18T22:34:27.473Z,101736.55
2022-10-18T22:36:56.773Z,101729.88
2022-10-18T22:39:25.189Z,101728.73
2022-10-18T22:41:56.452Z,101727.11
2022-10-18T22:44:26.695Z,101723.11
2022-10-18T22:46:54.859Z,101720.94
2022-10-18T22:49:23.780Z,101721.88
2022-10-18T22:51:52.931Z,101714.83
2022-10-18T22:54:21.981Z,101713.36
2022-10-18T22:56:50.364Z,101708.48
2022-10-18T22:59:18.421Z,101707.24
2022-10-18T23:01:46.764Z,101706.76
2022-10-18T23:04:15.106Z,101707.35
2022-10-18T23:06:43.090Z,101716.04
2022-10-18T23:09:11.711Z,101718.02
2022-10-18T23:11:39.770Z,101716.71
2022-10-18T23:14:07.650Z,101717.63
2022-10-18T23:16:36.283Z,101720.21
2022-10-18T23:19:04.485Z,101720.28
2022-10-18T23:21:33.808Z,101721.77
2022-10-18T23:24:01.899Z,101720.20
2022-10-18T23:26:29.990Z,101725.52
2022-10-18T23:28:58.904Z,101723.27
2022-10-18T23:31:31.094Z,101720.14
2022-10-18T23:34:03.548Z,101717.73
2022-10-18T23:36:32.932Z,101718.64
2022-10-18T23:39:01.181Z,101720.28
2022-10-18T23:41:29.776Z,101719.85
2022-10-18T23:43:58.324Z,101718.98
2022-10-18T23:46:26.577Z,101722.40
2022-10-18T23:48:55.378Z,101714.22
2022-10-18T23:51:23.200Z,101711.14
2022-10-18T23:53:51.334Z,101709.34
2022-10-18T23:56:19.518Z,101708.59
2022-10-18T23:58:47.502Z,101708.36
